Airfield :
LOGIN :

Register | Disclaimer

   EN    FR    IT 

 










Legend :    VFR   Marginal VFR   IFR   Intensive IFR   Very Intensive IFR
Visi :
Ceiling :
>= 8 km
>= 3000ft
5 to 8 km
1000 to 3000 ft
1500m to 5 km
500 to 1000 ft
800 to 1500m
200 to 500 ft
< 800m
< 200 ft
Symbols :   Thunderstorms  Fog  Heavy snow  Heavy precipitations  Wind > 20 kt
SIGMETs :     Misc.  Thunderstorms  Icing  Turbulence  Mountain Waves  Volcanic Ashes






- Airport Elevation : 49 ft
- IATA code : GLZ


EHGR - Gilze-Rijen Airbase

CURRENT METAR :
  • 221455Z AUTO 02008KT 280V060 9999 BKN340 12/02 Q1026 BLU

EXPIRED METARs :
  • 221425Z AUTO 02009KT 320V060 9999 OVC320 12/02 Q1026 BLU NOSIG
  • 221355Z AUTO 34009KT 330V090 9999 NCD 12/01 Q1026 BLU NOSIG
  • 221325Z AUTO 02008KT 270V060 9999 BKN350 12/01 Q1026 BLU NOSIG
  • 221255Z AUTO 02008KT 300V080 9999 NCD 12/01 Q1026 BLU NOSIG
  • 221225Z AUTO 01008KT 310V090 9999 NCD 11/02 Q1026 BLU NOSIG

TAF TAF EHGR
Valid from the 22 at 13:00 until the 23 at 01:00 UTC


221229Z 2213/2301 02008KT 9999 FEW040



MET'MAP, your aeronautical weather chart ! - Copyright ORBIFLY December 2007 - Disclaimer

ORBIFLY MET'MAP TEAM :

Programming & Development : Alexandra Zaïnal
Concept & original design : Baudouin d'Aumeries
Assistance for programming : Marc-Olivier Méhu
Technical & hardware support : Manuel Goepfert

Contact : metmap@orbifly.com




SOURCES & CREDITS :

   NOAA